sensor_id;sensor_type;location;lat;lon;timestamp;pressure;altitude;pressure_sealevel;temperature;humidity
44531;BME280;30240;47.418;0.700;2023-05-20T00:00:38;100820.51391601562;;;11.97;79.47
44531;BME280;30240;47.418;0.700;2023-05-20T00:03:04;100814.9658203125;;;11.94;79.58
44531;BME280;30240;47.418;0.700;2023-05-20T00:05:29;100811.24877929688;;;11.94;79.65
44531;BME280;30240;47.418;0.700;2023-05-20T00:07:53;100816.68090820312;;;11.87;79.8
44531;BME280;30240;47.418;0.700;2023-05-20T00:10:18;100815.02075195312;;;11.89;79.87
44531;BME280;30240;47.418;0.700;2023-05-20T00:12:43;100815.02075195312;;;11.89;79.87
44531;BME280;30240;47.418;0.700;2023-05-20T00:15:09;100815.43579101562;;;11.93;79.95
44531;BME280;30240;47.418;0.700;2023-05-20T00:17:33;100813.232421875;;;11.89;80.05
44531;BME280;30240;47.418;0.700;2023-05-20T00:19:59;100809.99755859375;;;11.87;80.12
44531;BME280;30240;47.418;0.700;2023-05-20T00:22:23;100806.78100585938;;;11.89;80.26
44531;BME280;30240;47.418;0.700;2023-05-20T00:24:48;100806.78100585938;;;11.89;80.26
44531;BME280;30240;47.418;0.700;2023-05-20T00:27:13;100803.8818359375;;;11.86;80.3
44531;BME280;30240;47.418;0.700;2023-05-20T00:29:39;100793.71948242188;;;11.86;80.44
44531;BME280;30240;47.418;0.700;2023-05-20T00:32:04;100794.95239257812;;;11.83;80.5
44531;BME280;30240;47.418;0.700;2023-05-20T00:34:28;100796.57592773438;;;11.86;80.62
44531;BME280;30240;47.418;0.700;2023-05-20T00:36:54;100796.57592773438;;;11.86;80.62
44531;BME280;30240;47.418;0.700;2023-05-20T00:39:18;100793.38989257812;;;11.83;80.81
44531;BME280;30240;47.418;0.700;2023-05-20T00:41:43;100790.21606445312;;;11.85;80.91
44531;BME280;30240;47.418;0.700;2023-05-20T00:44:08;100787.07885742188;;;11.9;80.8
44531;BME280;30240;47.418;0.700;2023-05-20T00:46:34;100779.63256835938;;;11.85;80.81
44531;BME280;30240;47.418;0.700;2023-05-20T00:48:58;100779.63256835938;;;11.85;80.81
44531;BME280;30240;47.418;0.700;2023-05-20T00:51:23;100779.99267578125;;;11.81;81.05
44531;BME280;30240;47.418;0.700;2023-05-20T00:53:49;100774.55444335938;;;11.83;81.07
44531;BME280;30240;47.418;0.700;2023-05-20T00:56:14;100775.81787109375;;;11.82;81.05
44531;BME280;30240;47.418;0.700;2023-05-20T00:58:39;100777.54516601562;;;11.83;80.97
44531;BME280;30240;47.418;0.700;2023-05-20T01:01:04;100767.48657226562;;;11.82;81.05
44531;BME280;30240;47.418;0.700;2023-05-20T01:03:29;100767.48657226562;;;11.82;81.05
44531;BME280;30240;47.418;0.700;2023-05-20T01:05:54;100765.00244140625;;;11.83;81.03
44531;BME280;30240;47.418;0.700;2023-05-20T01:08:19;100771.60034179688;;;11.79;81.1
44531;BME280;30240;47.418;0.700;2023-05-20T01:10:45;100765.625;;;11.71;81.19
44531;BME280;30240;47.418;0.700;2023-05-20T01:13:10;100766.82739257812;;;11.75;81.34
44531;BME280;30240;47.418;0.700;2023-05-20T01:15:34;100766.82739257812;;;11.75;81.34
44531;BME280;30240;47.418;0.700;2023-05-20T01:18:00;100761.48681640625;;;11.71;81.37
44531;BME280;30240;47.418;0.700;2023-05-20T01:20:24;100758.22143554688;;;11.66;81.5
44531;BME280;30240;47.418;0.700;2023-05-20T01:22:51;100752.55737304688;;;11.62;81.5
44531;BME280;30240;47.418;0.700;2023-05-20T01:25:14;100750.03051757812;;;11.54;81.69
44531;BME280;30240;47.418;0.700;2023-05-20T01:27:38;100750.03051757812;;;11.54;81.69
44531;BME280;30240;47.418;0.700;2023-05-20T01:30:04;100747.0947265625;;;11.59;81.73
44531;BME280;30240;47.418;0.700;2023-05-20T01:32:31;100744.2626953125;;;11.58;81.79
44531;BME280;30240;47.418;0.700;2023-05-20T01:34:54;100737.73193359375;;;11.55;81.58
44531;BME280;30240;47.418;0.700;2023-05-20T01:37:20;100741.99829101562;;;11.51;81.75
44531;BME280;30240;47.418;0.700;2023-05-20T01:39:46;100741.99829101562;;;11.51;81.75
44531;BME280;30240;47.418;0.700;2023-05-20T01:42:09;100738.27514648438;;;11.5;81.87
44531;BME280;30240;47.418;0.700;2023-05-20T01:44:34;100736.43798828125;;;11.47;81.91
44531;BME280;30240;47.418;0.700;2023-05-20T01:46:59;100731.53076171875;;;11.47;81.95
44531;BME280;30240;47.418;0.700;2023-05-20T01:49:23;100732.01293945312;;;11.41;81.98
44531;BME280;30240;47.418;0.700;2023-05-20T01:51:49;100732.01293945312;;;11.41;81.98
44531;BME280;30240;47.418;0.700;2023-05-20T01:54:13;100730.27954101562;;;11.4;81.95
44531;BME280;30240;47.418;0.700;2023-05-20T01:56:38;100731.03637695312;;;11.27;82.21
44531;BME280;30240;47.418;0.700;2023-05-20T01:59:03;100731.62231445312;;;11.22;82.49
44531;BME280;30240;47.418;0.700;2023-05-20T02:01:29;100730.5908203125;;;10.92;83.0
44531;BME280;30240;47.418;0.700;2023-05-20T02:03:53;100730.5908203125;;;10.92;83.0
44531;BME280;30240;47.418;0.700;2023-05-20T02:06:18;100727.83813476562;;;10.88;83.13
44531;BME280;30240;47.418;0.700;2023-05-20T02:08:44;100728.125;;;10.79;83.41
44531;BME280;30240;47.418;0.700;2023-05-20T02:11:08;100723.74877929688;;;10.75;83.46
44531;BME280;30240;47.418;0.700;2023-05-20T02:13:33;100719.0185546875;;;10.74;83.45
44531;BME280;30240;47.418;0.700;2023-05-20T02:15:58;100719.0185546875;;;10.74;83.45
44531;BME280;30240;47.418;0.700;2023-05-20T02:18:24;100722.38159179688;;;10.72;83.5
44531;BME280;30240;47.418;0.700;2023-05-20T02:20:48;100717.85888671875;;;10.74;83.38
44531;BME280;30240;47.418;0.700;2023-05-20T02:23:13;100717.54150390625;;;10.75;83.44
44531;BME280;30240;47.418;0.700;2023-05-20T02:25:39;100714.65454101562;;;10.71;83.43
44531;BME280;30240;47.418;0.700;2023-05-20T02:28:03;100714.65454101562;;;10.71;83.43
44531;BME280;30240;47.418;0.700;2023-05-20T02:30:28;100710.62622070312;;;10.61;83.46
44531;BME280;30240;47.418;0.700;2023-05-20T02:32:53;100715.4541015625;;;10.63;83.61
44531;BME280;30240;47.418;0.700;2023-05-20T02:35:18;100716.56494140625;;;10.6;83.75
44531;BME280;30240;47.418;0.700;2023-05-20T02:37:44;100712.646484375;;;10.54;83.72
44531;BME280;30240;47.418;0.700;2023-05-20T02:40:09;100714.87426757812;;;10.49;83.61
44531;BME280;30240;47.418;0.700;2023-05-20T02:42:33;100714.87426757812;;;10.49;83.61
44531;BME280;30240;47.418;0.700;2023-05-20T02:44:59;100711.2060546875;;;10.58;83.6
44531;BME280;30240;47.418;0.700;2023-05-20T02:47:24;100702.37426757812;;;10.53;83.64
44531;BME280;30240;47.418;0.700;2023-05-20T02:49:48;100697.35717773438;;;10.5;83.56
44531;BME280;30240;47.418;0.700;2023-05-20T02:52:14;100696.875;;;10.49;83.64
44531;BME280;30240;47.418;0.700;2023-05-20T02:54:38;100696.875;;;10.49;83.64
44531;BME280;30240;47.418;0.700;2023-05-20T02:57:04;100694.580078125;;;10.51;83.49
44531;BME280;30240;47.418;0.700;2023-05-20T02:59:28;100692.3095703125;;;10.51;83.48
44531;BME280;30240;47.418;0.700;2023-05-20T03:01:53;100689.67895507812;;;10.49;83.53
44531;BME280;30240;47.418;0.700;2023-05-20T03:04:18;100692.02880859375;;;10.39;83.74
44531;BME280;30240;47.418;0.700;2023-05-20T03:06:44;100692.02880859375;;;10.39;83.74
44531;BME280;30240;47.418;0.700;2023-05-20T03:09:08;100686.5478515625;;;10.28;84.0
44531;BME280;30240;47.418;0.700;2023-05-20T03:11:33;100689.48974609375;;;10.28;83.99
44531;BME280;30240;47.418;0.700;2023-05-20T03:13:58;100688.0615234375;;;10.26;83.97
44531;BME280;30240;47.418;0.700;2023-05-20T03:16:24;100690.185546875;;;10.19;84.24
44531;BME280;30240;47.418;0.700;2023-05-20T03:18:48;100690.185546875;;;10.19;84.24
44531;BME280;30240;47.418;0.700;2023-05-20T03:21:13;100683.78295898438;;;10.16;84.3
44531;BME280;30240;47.418;0.700;2023-05-20T03:23:38;100683.31298828125;;;10.13;84.31
44531;BME280;30240;47.418;0.700;2023-05-20T03:26:04;100681.0791015625;;;10.16;84.27
44531;BME280;30240;47.418;0.700;2023-05-20T03:28:29;100680.67016601562;;;10.15;84.23
44531;BME280;30240;47.418;0.700;2023-05-20T03:30:53;100680.67016601562;;;10.15;84.23
44531;BME280;30240;47.418;0.700;2023-05-20T03:33:18;100681.61010742188;;;10.17;84.19
44531;BME280;30240;47.418;0.700;2023-05-20T03:35:43;100682.16552734375;;;10.12;84.22
44531;BME280;30240;47.418;0.700;2023-05-20T03:38:08;100679.06494140625;;;10.12;84.38
44531;BME280;30240;47.418;0.700;2023-05-20T03:40:33;100673.91357421875;;;10.12;84.31
44531;BME280;30240;47.418;0.700;2023-05-20T03:42:59;100673.91357421875;;;10.12;84.31
44531;BME280;30240;47.418;0.700;2023-05-20T03:45:23;100672.00927734375;;;10.1;84.24
44531;BME280;30240;47.418;0.700;2023-05-20T03:47:49;100667.55981445312;;;10.05;84.27
44531;BME280;30240;47.418;0.700;2023-05-20T03:50:13;100670.9228515625;;;10.01;84.27
44531;BME280;30240;47.418;0.700;2023-05-20T03:52:38;100670.12329101562;;;10.06;84.22
44531;BME280;30240;47.418;0.700;2023-05-20T03:55:04;100670.12329101562;;;10.06;84.22
44531;BME280;30240;47.418;0.700;2023-05-20T03:57:29;100667.55981445312;;;10.06;84.18
44531;BME280;30240;47.418;0.700;2023-05-20T03:59:53;100666.81518554688;;;9.95;84.31
44531;BME280;30240;47.418;0.700;2023-05-20T04:02:19;100673.68774414062;;;9.97;84.38
44531;BME280;30240;47.418;0.700;2023-05-20T04:04:43;100663.330078125;;;9.98;84.28
44531;BME280;30240;47.418;0.700;2023-05-20T04:07:08;100662.060546875;;;9.9;84.36
44531;BME280;30240;47.418;0.700;2023-05-20T04:09:33;100662.060546875;;;9.9;84.36
44531;BME280;30240;47.418;0.700;2023-05-20T04:11:58;100659.912109375;;;9.88;84.37
44531;BME280;30240;47.418;0.700;2023-05-20T04:14:23;100661.63940429688;;;9.84;84.37
44531;BME280;30240;47.418;0.700;2023-05-20T04:16:48;100658.12377929688;;;9.87;84.39
44531;BME280;30240;47.418;0.700;2023-05-20T04:19:13;100663.76342773438;;;9.77;84.39
44531;BME280;30240;47.418;0.700;2023-05-20T04:21:38;100663.76342773438;;;9.77;84.39
44531;BME280;30240;47.418;0.700;2023-05-20T04:24:04;100661.52954101562;;;9.73;84.53
44531;BME280;30240;47.418;0.700;2023-05-20T04:26:28;100656.67114257812;;;9.77;84.51
44531;BME280;30240;47.418;0.700;2023-05-20T04:28:54;100657.5439453125;;;9.84;84.46
44531;BME280;30240;47.418;0.700;2023-05-20T04:31:18;100657.84301757812;;;9.84;84.33
44531;BME280;30240;47.418;0.700;2023-05-20T04:33:43;100657.84301757812;;;9.84;84.33
44531;BME280;30240;47.418;0.700;2023-05-20T04:36:09;100651.14135742188;;;9.92;84.17
44531;BME280;30240;47.418;0.700;2023-05-20T04:38:33;100652.7099609375;;;9.97;84.09
44531;BME280;30240;47.418;0.700;2023-05-20T04:40:58;100653.4912109375;;;10.02;83.9
44531;BME280;30240;47.418;0.700;2023-05-20T04:43:24;100651.59301757812;;;9.91;84.08
44531;BME280;30240;47.418;0.700;2023-05-20T04:45:49;100651.59301757812;;;9.91;84.08
44531;BME280;30240;47.418;0.700;2023-05-20T04:48:13;100642.46215820312;;;9.87;84.16
44531;BME280;30240;47.418;0.700;2023-05-20T04:50:39;100643.10913085938;;;9.84;84.29
44531;BME280;30240;47.418;0.700;2023-05-20T04:53:03;100644.12231445312;;;10.01;84.07
44531;BME280;30240;47.418;0.700;2023-05-20T04:55:28;100645.03173828125;;;9.95;83.92
44531;BME280;30240;47.418;0.700;2023-05-20T04:57:53;100645.03173828125;;;9.95;83.92
44531;BME280;30240;47.418;0.700;2023-05-20T05:00:18;100642.51708984375;;;10.1;83.61
44531;BME280;30240;47.418;0.700;2023-05-20T05:02:43;100646.15478515625;;;10.22;83.41
44531;BME280;30240;47.418;0.700;2023-05-20T05:05:08;100642.46826171875;;;10.2;83.35
44531;BME280;30240;47.418;0.700;2023-05-20T05:07:34;100641.57104492188;;;10.3;83.14
44531;BME280;30240;47.418;0.700;2023-05-20T05:09:58;100641.57104492188;;;10.3;83.14
44531;BME280;30240;47.418;0.700;2023-05-20T05:12:23;100646.240234375;;;10.39;82.91
44531;BME280;30240;47.418;0.700;2023-05-20T05:14:48;100649.93896484375;;;10.26;82.94
44531;BME280;30240;47.418;0.700;2023-05-20T05:17:13;100650.39672851562;;;10.43;82.76
44531;BME280;30240;47.418;0.700;2023-05-20T05:19:38;100649.4873046875;;;10.6;82.32
44531;BME280;30240;47.418;0.700;2023-05-20T05:22:03;100649.4873046875;;;10.6;82.32
44531;BME280;30240;47.418;0.700;2023-05-20T05:24:28;100648.046875;;;10.57;82.14
44531;BME280;30240;47.418;0.700;2023-05-20T05:26:54;100650.9521484375;;;10.58;82.29
44531;BME280;30240;47.418;0.700;2023-05-20T05:29:18;100652.8564453125;;;10.69;82.29
44531;BME280;30240;47.418;0.700;2023-05-20T05:31:43;100652.64892578125;;;11.05;81.82
44531;BME280;30240;47.418;0.700;2023-05-20T05:34:08;100648.30322265625;;;11.03;81.59
44531;BME280;30240;47.418;0.700;2023-05-20T05:36:33;100648.30322265625;;;11.03;81.59
44531;BME280;30240;47.418;0.700;2023-05-20T05:38:58;100647.65625;;;10.88;81.65
44531;BME280;30240;47.418;0.700;2023-05-20T05:41:23;100649.57885742188;;;11.03;81.66
44531;BME280;30240;47.418;0.700;2023-05-20T05:43:48;100645.98388671875;;;11.26;81.18
44531;BME280;30240;47.418;0.700;2023-05-20T05:46:13;100645.44677734375;;;11.48;80.7
44531;BME280;30240;47.418;0.700;2023-05-20T05:48:38;100645.44677734375;;;11.48;80.7
44531;BME280;30240;47.418;0.700;2023-05-20T05:51:03;100644.37255859375;;;11.48;80.74
44531;BME280;30240;47.418;0.700;2023-05-20T05:53:28;100638.56201171875;;;11.57;80.27
44531;BME280;30240;47.418;0.700;2023-05-20T05:55:53;100639.03198242188;;;11.35;80.68
44531;BME280;30240;47.418;0.700;2023-05-20T05:58:18;100632.72094726562;;;11.61;80.56
44531;BME280;30240;47.418;0.700;2023-05-20T06:00:43;100632.72094726562;;;11.61;80.56
44531;BME280;30240;47.418;0.700;2023-05-20T06:03:08;100630.48706054688;;;11.62;80.24
44531;BME280;30240;47.418;0.700;2023-05-20T06:05:33;100634.5458984375;;;11.78;79.98
44531;BME280;30240;47.418;0.700;2023-05-20T06:07:58;100628.48510742188;;;11.78;80.28
44531;BME280;30240;47.418;0.700;2023-05-20T06:10:24;100627.03247070312;;;11.79;80.12
44531;BME280;30240;47.418;0.700;2023-05-20T06:12:49;100627.03247070312;;;11.79;80.12
44531;BME280;30240;47.418;0.700;2023-05-20T06:15:13;100620.11108398438;;;11.76;80.25
44531;BME280;30240;47.418;0.700;2023-05-20T06:17:38;100617.95043945312;;;11.93;79.9
44531;BME280;30240;47.418;0.700;2023-05-20T06:20:04;100610.06469726562;;;12.13;79.54
44531;BME280;30240;47.418;0.700;2023-05-20T06:22:28;100612.82958984375;;;11.81;80.03
44531;BME280;30240;47.418;0.700;2023-05-20T06:24:55;100612.82958984375;;;11.81;80.03
44531;BME280;30240;47.418;0.700;2023-05-20T06:27:18;100613.51318359375;;;12.23;79.52
44531;BME280;30240;47.418;0.700;2023-05-20T06:29:43;100617.2607421875;;;12.28;78.54
44531;BME280;30240;47.418;0.700;2023-05-20T06:32:08;100610.99853515625;;;12.41;79.0
44531;BME280;30240;47.418;0.700;2023-05-20T06:34:33;100612.16430664062;;;12.42;77.66
44531;BME280;30240;47.418;0.700;2023-05-20T06:36:58;100612.16430664062;;;12.42;77.66
44531;BME280;30240;47.418;0.700;2023-05-20T06:39:24;100609.40551757812;;;12.3;78.1
44531;BME280;30240;47.418;0.700;2023-05-20T06:41:48;100606.78100585938;;;12.44;78.12
44531;BME280;30240;47.418;0.700;2023-05-20T06:44:13;100609.39331054688;;;12.18;78.04
44531;BME280;30240;47.418;0.700;2023-05-20T06:46:38;100609.26513671875;;;12.3;78.22
44531;BME280;30240;47.418;0.700;2023-05-20T06:49:04;100609.26513671875;;;12.3;78.22
44531;BME280;30240;47.418;0.700;2023-05-20T06:51:28;100607.59887695312;;;12.37;78.06
44531;BME280;30240;47.418;0.700;2023-05-20T06:53:53;100607.87353515625;;;12.52;77.79
44531;BME280;30240;47.418;0.700;2023-05-20T06:56:18;100603.06396484375;;;12.73;77.26
44531;BME280;30240;47.418;0.700;2023-05-20T06:58:43;100606.18896484375;;;12.69;77.16
44531;BME280;30240;47.418;0.700;2023-05-20T07:01:08;100606.18896484375;;;12.69;77.16
44531;BME280;30240;47.418;0.700;2023-05-20T07:03:33;100606.38427734375;;;13.03;76.37
44531;BME280;30240;47.418;0.700;2023-05-20T07:05:58;100607.63549804688;;;13.04;76.62
44531;BME280;30240;47.418;0.700;2023-05-20T07:08:23;100610.45532226562;;;13.12;75.65
44531;BME280;30240;47.418;0.700;2023-05-20T07:10:48;100615.9912109375;;;13.06;75.72
44531;BME280;30240;47.418;0.700;2023-05-20T07:13:14;100612.01782226562;;;12.97;76.34
44531;BME280;30240;47.418;0.700;2023-05-20T07:15:38;100612.01782226562;;;12.97;76.34
44531;BME280;30240;47.418;0.700;2023-05-20T07:18:03;100618.51806640625;;;13.12;76.09
44531;BME280;30240;47.418;0.700;2023-05-20T07:20:28;100614.73388671875;;;13.36;75.38
44531;BME280;30240;47.418;0.700;2023-05-20T07:22:53;100612.81127929688;;;13.45;74.72
44531;BME280;30240;47.418;0.700;2023-05-20T07:25:18;100611.21826171875;;;13.53;74.88
44531;BME280;30240;47.418;0.700;2023-05-20T07:27:43;100611.21826171875;;;13.53;74.88
44531;BME280;30240;47.418;0.700;2023-05-20T07:30:09;100613.9404296875;;;13.69;74.33
44531;BME280;30240;47.418;0.700;2023-05-20T07:32:33;100614.65454101562;;;13.48;74.56
44531;BME280;30240;47.418;0.700;2023-05-20T07:34:58;100609.99755859375;;;13.77;74.32
44531;BME280;30240;47.418;0.700;2023-05-20T07:37:23;100608.75854492188;;;13.74;73.72
44531;BME280;30240;47.418;0.700;2023-05-20T07:39:49;100608.75854492188;;;13.74;73.72
44531;BME280;30240;47.418;0.700;2023-05-20T07:42:13;100609.26513671875;;;13.98;73.72
44531;BME280;30240;47.418;0.700;2023-05-20T07:44:38;100602.89306640625;;;14.33;72.68
44531;BME280;30240;47.418;0.700;2023-05-20T07:47:04;100595.61157226562;;;14.17;73.09
44531;BME280;30240;47.418;0.700;2023-05-20T07:49:28;100597.15576171875;;;14.47;73.4
44531;BME280;30240;47.418;0.700;2023-05-20T07:51:54;100597.15576171875;;;14.47;73.4
44531;BME280;30240;47.418;0.700;2023-05-20T07:54:18;100593.90869140625;;;14.59;71.88
44531;BME280;30240;47.418;0.700;2023-05-20T07:56:43;100591.2841796875;;;14.8;71.27
44531;BME280;30240;47.418;0.700;2023-05-20T07:59:08;100581.75048828125;;;14.81;71.4
44531;BME280;30240;47.418;0.700;2023-05-20T08:01:33;100583.0078125;;;15.01;71.17
44531;BME280;30240;47.418;0.700;2023-05-20T08:03:58;100583.0078125;;;15.01;71.17
44531;BME280;30240;47.418;0.700;2023-05-20T08:06:23;100578.23486328125;;;14.73;71.34
44531;BME280;30240;47.418;0.700;2023-05-20T08:08:49;100574.23706054688;;;15.23;70.74
44531;BME280;30240;47.418;0.700;2023-05-20T08:11:13;100579.43725585938;;;15.6;69.7
44531;BME280;30240;47.418;0.700;2023-05-20T08:13:39;100572.54638671875;;;15.13;71.28
44531;BME280;30240;47.418;0.700;2023-05-20T08:16:04;100572.54638671875;;;15.13;71.28
44531;BME280;30240;47.418;0.700;2023-05-20T08:18:29;100568.2373046875;;;15.37;70.17
44531;BME280;30240;47.418;0.700;2023-05-20T08:20:54;100568.56079101562;;;15.54;69.88
44531;BME280;30240;47.418;0.700;2023-05-20T08:23:18;100560.85815429688;;;15.72;69.8
44531;BME280;30240;47.418;0.700;2023-05-20T08:25:43;100555.37719726562;;;15.67;69.29
44531;BME280;30240;47.418;0.700;2023-05-20T08:28:08;100555.37719726562;;;15.67;69.29
44531;BME280;30240;47.418;0.700;2023-05-20T08:30:34;100561.38305664062;;;15.99;68.88
44531;BME280;30240;47.418;0.700;2023-05-20T08:32:58;100554.82177734375;;;15.69;69.31
44531;BME280;30240;47.418;0.700;2023-05-20T08:35:24;100553.1005859375;;;16.2;68.71
44531;BME280;30240;47.418;0.700;2023-05-20T08:37:48;100554.72412109375;;;16.05;68.83
44531;BME280;30240;47.418;0.700;2023-05-20T08:40:14;100559.26513671875;;;16.16;67.55
44531;BME280;30240;47.418;0.700;2023-05-20T08:42:39;100559.26513671875;;;16.16;67.55
44531;BME280;30240;47.418;0.700;2023-05-20T08:45:04;100555.11474609375;;;16.47;68.12
44531;BME280;30240;47.418;0.700;2023-05-20T08:47:29;100558.53271484375;;;16.79;66.82
44531;BME280;30240;47.418;0.700;2023-05-20T08:49:54;100557.9833984375;;;16.55;67.87
44531;BME280;30240;47.418;0.700;2023-05-20T08:52:20;100560.79711914062;;;16.83;67.26
44531;BME280;30240;47.418;0.700;2023-05-20T08:54:45;100560.79711914062;;;16.83;67.26
44531;BME280;30240;47.418;0.700;2023-05-20T08:57:09;100568.701171875;;;17.1;66.05
44531;BME280;30240;47.418;0.700;2023-05-20T08:59:34;100561.65771484375;;;17.1;66.01
44531;BME280;30240;47.418;0.700;2023-05-20T09:01:59;100558.78295898438;;;16.5;66.59
44531;BME280;30240;47.418;0.700;2023-05-20T09:04:24;100559.92431640625;;;16.33;67.03
44531;BME280;30240;47.418;0.700;2023-05-20T09:06:49;100559.92431640625;;;16.33;67.03
44531;BME280;30240;47.418;0.700;2023-05-20T09:09:14;100561.41967773438;;;16.54;66.63
44531;BME280;30240;47.418;0.700;2023-05-20T09:11:39;100562.6708984375;;;16.19;67.5
44531;BME280;30240;47.418;0.700;2023-05-20T09:14:04;100555.93872070312;;;16.19;67.68
44531;BME280;30240;47.418;0.700;2023-05-20T09:16:29;100550.64086914062;;;15.96;68.55
44531;BME280;30240;47.418;0.700;2023-05-20T09:18:54;100550.64086914062;;;15.96;68.55
44531;BME280;30240;47.418;0.700;2023-05-20T09:21:24;100549.7802734375;;;16.45;67.53
44531;BME280;30240;47.418;0.700;2023-05-20T09:23:46;100551.06201171875;;;17.06;66.79
44531;BME280;30240;47.418;0.700;2023-05-20T09:26:09;100549.79858398438;;;17.21;65.97
44531;BME280;30240;47.418;0.700;2023-05-20T09:28:34;100541.00952148438;;;16.76;65.82
44531;BME280;30240;47.418;0.700;2023-05-20T09:30:59;100541.00952148438;;;16.76;65.82
44531;BME280;30240;47.418;0.700;2023-05-20T09:33:26;100533.14208984375;;;16.86;67.04
44531;BME280;30240;47.418;0.700;2023-05-20T09:35:49;100526.40380859375;;;17.18;65.52
44531;BME280;30240;47.418;0.700;2023-05-20T09:38:14;100521.89331054688;;;17.32;64.6
44531;BME280;30240;47.418;0.700;2023-05-20T09:40:41;100513.39111328125;;;17.34;64.52
44531;BME280;30240;47.418;0.700;2023-05-20T09:43:05;100513.39111328125;;;17.34;64.52
44531;BME280;30240;47.418;0.700;2023-05-20T09:45:29;100514.43481445312;;;17.53;64.83
44531;BME280;30240;47.418;0.700;2023-05-20T09:47:54;100516.95556640625;;;17.23;64.13
44531;BME280;30240;47.418;0.700;2023-05-20T09:50:20;100510.986328125;;;17.52;64.69
44531;BME280;30240;47.418;0.700;2023-05-20T09:52:44;100509.78393554688;;;17.1;66.01
44531;BME280;30240;47.418;0.700;2023-05-20T09:55:09;100509.78393554688;;;17.1;66.01
44531;BME280;30240;47.418;0.700;2023-05-20T09:57:34;100507.16552734375;;;17.96;64.42
44531;BME280;30240;47.418;0.700;2023-05-20T09:59:59;100505.2001953125;;;17.98;62.44
44531;BME280;30240;47.418;0.700;2023-05-20T10:02:24;100512.68920898438;;;18.53;62.12
44531;BME280;30240;47.418;0.700;2023-05-20T10:04:50;100506.689453125;;;18.51;62.56
44531;BME280;30240;47.418;0.700;2023-05-20T10:07:31;100506.689453125;;;18.51;62.56
44531;BME280;30240;47.418;0.700;2023-05-20T10:07:43;100506.689453125;;;18.51;62.56
44531;BME280;30240;47.418;0.700;2023-05-20T10:09:48;100501.53198242188;;;18.46;62.16
44531;BME280;30240;47.418;0.700;2023-05-20T10:09:54;100501.53198242188;;;18.46;62.16
44531;BME280;30240;47.418;0.700;2023-05-20T10:12:08;100499.85961914062;;;17.9;63.4
44531;BME280;30240;47.418;0.700;2023-05-20T10:14:35;100505.62744140625;;;18.35;62.81
44531;BME280;30240;47.418;0.700;2023-05-20T10:16:59;100500.25024414062;;;18.73;62.86
44531;BME280;30240;47.418;0.700;2023-05-20T10:19:26;100495.23315429688;;;17.73;64.64
44531;BME280;30240;47.418;0.700;2023-05-20T10:21:44;100495.23315429688;;;17.73;64.64
44531;BME280;30240;47.418;0.700;2023-05-20T10:24:09;100489.81323242188;;;17.55;66.01
44531;BME280;30240;47.418;0.700;2023-05-20T10:26:34;100484.74731445312;;;17.83;64.82
44531;BME280;30240;47.418;0.700;2023-05-20T10:28:58;100485.43701171875;;;17.97;65.29
44531;BME280;30240;47.418;0.700;2023-05-20T10:31:24;100485.06469726562;;;18.34;63.66
44531;BME280;30240;47.418;0.700;2023-05-20T10:33:51;100485.06469726562;;;18.34;63.66
44531;BME280;30240;47.418;0.700;2023-05-20T10:36:22;100483.837890625;;;18.24;63.01
44531;BME280;30240;47.418;0.700;2023-05-20T10:38:48;100483.72802734375;;;18.56;62.83
44531;BME280;30240;47.418;0.700;2023-05-20T10:41:07;100484.326171875;;;19.4;61.03
44531;BME280;30240;47.418;0.700;2023-05-20T10:43:28;100479.96215820312;;;19.07;61.14
44531;BME280;30240;47.418;0.700;2023-05-20T10:45:54;100479.96215820312;;;19.07;61.14
44531;BME280;30240;47.418;0.700;2023-05-20T10:48:20;100476.33056640625;;;18.9;62.77
44531;BME280;30240;47.418;0.700;2023-05-20T10:50:44;100477.6611328125;;;19.14;60.98
44531;BME280;30240;47.418;0.700;2023-05-20T10:53:11;100479.43725585938;;;19.57;59.6
44531;BME280;30240;47.418;0.700;2023-05-20T10:55:34;100472.65625;;;19.87;59.55
44531;BME280;30240;47.418;0.700;2023-05-20T10:57:59;100472.65625;;;19.87;59.55
44531;BME280;30240;47.418;0.700;2023-05-20T11:00:24;100468.56079101562;;;20.15;59.84
44531;BME280;30240;47.418;0.700;2023-05-20T11:02:49;100462.07885742188;;;19.74;60.14
44531;BME280;30240;47.418;0.700;2023-05-20T11:05:15;100462.87231445312;;;19.02;62.15
44531;BME280;30240;47.418;0.700;2023-05-20T11:07:39;100455.70068359375;;;19.23;60.85
44531;BME280;30240;47.418;0.700;2023-05-20T11:10:07;100455.70068359375;;;19.23;60.85
44531;BME280;30240;47.418;0.700;2023-05-20T11:12:29;100448.91967773438;;;19.37;60.6
44531;BME280;30240;47.418;0.700;2023-05-20T11:14:54;100446.51489257812;;;20.64;58.27
44531;BME280;30240;47.418;0.700;2023-05-20T11:17:19;100447.0947265625;;;19.4;62.04